Time,TemperatureF,DewpointF,PressureIn,WindDirection,WindDirectionDegrees,WindSpeedMPH,WindSpeedGustMPH,Humidity,HourlyPrecipIn,Conditions,Clouds,dailyrainin,SoftwareType,DateUTC
2013-09-29 00:01:00,77.8,71.5,30.01,ENE,68,0.7,3.4,81,0.00,,,0.00,WUHU216HW,2013-09-29 04:01:00,
2013-09-29 00:06:00,77.4,71.1,30.01,NNE,23,0.2,3.4,81,0.00,,,0.00,WUHU216HW,2013-09-29 04:06:00,
2013-09-29 00:11:00,77.4,71.5,30.01,ENE,68,0.9,1.3,82,0.00,,,0.00,WUHU216HW,2013-09-29 04:11:00,
2013-09-29 00:16:00,77.2,71.3,30.01,NNE,23,2.2,2.2,82,0.00,,,0.00,WUHU216HW,2013-09-29 04:16:00,
2013-09-29 00:21:00,77.2,70.9,30.01,NNE,23,0.0,2.2,81,0.00,,,0.00,WUHU216HW,2013-09-29 04:21:00,
2013-09-29 00:26:00,77.4,71.1,30.02,NNW,338,0.4,2.2,81,0.00,,,0.00,WUHU216HW,2013-09-29 04:26:00,
2013-09-29 00:31:00,77.4,71.1,30.01,NNE,23,1.6,2.7,81,0.00,,,0.00,WUHU216HW,2013-09-29 04:31:00,
2013-09-29 00:36:00,77.4,71.1,30.01,East,90,0.4,2.7,81,0.00,,,0.00,WUHU216HW,2013-09-29 04:36:00,
2013-09-29 00:41:00,77.4,71.1,30.01,NNE,23,0.0,1.6,81,0.00,,,0.00,WUHU216HW,2013-09-29 04:41:00,
2013-09-29 00:46:00,77.4,71.1,30.01,North,0,0.9,2.5,81,0.00,,,0.00,WUHU216HW,2013-09-29 04:46:00,
2013-09-29 00:51:00,77.4,71.1,30.00,North,0,0.4,2.5,81,0.00,,,0.00,WUHU216HW,2013-09-29 04:51:00,
2013-09-29 00:56:00,77.4,71.1,30.00,WNW,293,0.7,1.1,81,0.00,,,0.00,WUHU216HW,2013-09-29 04:56:00,
2013-09-29 01:01:00,77.4,71.1,30.00,NE,45,0.0,0.9,81,0.00,,,0.00,WUHU216HW,2013-09-29 05:01:00,
2013-09-29 01:06:00,77.4,71.1,30.00,NNE,23,0.0,1.1,81,0.00,,,0.00,WUHU216HW,2013-09-29 05:06:00,
2013-09-29 01:11:00,77.4,70.7,30.00,ENE,68,1.3,1.3,80,0.00,,,0.00,WUHU216HW,2013-09-29 05:11:00,
2013-09-29 01:16:00,77.4,70.7,30.00,NNE,23,0.2,1.3,80,0.00,,,0.00,WUHU216HW,2013-09-29 05:16:00,
2013-09-29 01:21:00,77.4,70.7,30.00,NNE,23,0.4,1.3,80,0.00,,,0.00,WUHU216HW,2013-09-29 05:21:00,
2013-09-29 01:26:00,77.4,70.7,30.00,North,0,0.0,1.1,80,0.00,,,0.00,WUHU216HW,2013-09-29 05:26:00,
2013-09-29 01:31:00,77.4,70.7,30.00,NNW,338,0.2,0.4,80,0.00,,,0.00,WUHU216HW,2013-09-29 05:31:00,
2013-09-29 01:36:00,77.4,70.4,30.00,NE,45,0.0,1.8,79,0.00,,,0.00,WUHU216HW,2013-09-29 05:36:00,
2013-09-29 01:41:00,77.4,70.4,30.00,East,90,1.1,1.8,79,0.00,,,0.00,WUHU216HW,2013-09-29 05:41:00,
2013-09-29 01:46:00,77.4,70.0,30.00,NNE,23,1.3,2.5,78,0.00,,,0.00,WUHU216HW,2013-09-29 05:46:00,
2013-09-29 01:51:00,77.2,69.9,29.99,ENE,68,0.4,2.5,78,0.00,,,0.00,WUHU216HW,2013-09-29 05:51:00,
2013-09-29 01:56:00,77.2,69.9,29.99,NE,45,0.4,1.8,78,0.00,,,0.00,WUHU216HW,2013-09-29 05:56:00,
2013-09-29 02:01:00,77.4,70.0,29.99,East,90,0.4,1.1,78,0.00,,,0.00,WUHU216HW,2013-09-29 06:01:00,
2013-09-29 02:06:00,77.4,70.0,29.99,WSW,248,1.1,1.1,78,0.00,,,0.00,WUHU216HW,2013-09-29 06:06:00,
2013-09-29 02:11:00,77.2,69.9,29.99,North,0,1.1,2.5,78,0.00,,,0.00,WUHU216HW,2013-09-29 06:11:00,
2013-09-29 02:16:00,77.2,69.9,29.99,NW,315,0.4,2.5,78,0.00,,,0.00,WUHU216HW,2013-09-29 06:16:00,
2013-09-29 02:21:00,77.2,69.9,29.99,NNE,23,1.6,1.6,78,0.00,,,0.00,WUHU216HW,2013-09-29 06:21:00,
2013-09-29 02:26:00,77.2,69.9,29.99,NNE,23,0.2,1.6,78,0.00,,,0.00,WUHU216HW,2013-09-29 06:26:00,
2013-09-29 02:31:00,77.2,69.9,29.99,North,0,1.1,1.6,78,0.00,,,0.00,WUHU216HW,2013-09-29 06:31:00,
2013-09-29 02:36:00,77.2,69.9,29.99,NNE,23,0.2,1.1,78,0.00,,,0.00,WUHU216HW,2013-09-29 06:36:00,
2013-09-29 02:41:00,77.0,69.7,29.99,NNE,23,0.4,2.2,78,0.00,,,0.00,WUHU216HW,2013-09-29 06:41:00,
2013-09-29 02:46:00,77.0,69.7,29.99,NNE,23,0.2,2.2,78,0.00,,,0.00,WUHU216HW,2013-09-29 06:46:00,
2013-09-29 02:51:00,76.9,69.5,29.99,ENE,68,0.4,1.3,78,0.00,,,0.00,WUHU216HW,2013-09-29 06:51:00,
2013-09-29 02:56:00,76.9,69.5,29.99,NNE,23,0.0,1.6,78,0.00,,,0.00,WUHU216HW,2013-09-29 06:56:00,
2013-09-29 03:01:00,76.9,69.5,29.99,East,90,0.4,3.4,78,0.00,,,0.00,WUHU216HW,2013-09-29 07:01:00,
2013-09-29 03:06:00,76.7,69.3,29.98,NE,45,0.4,3.4,78,0.00,,,0.00,WUHU216HW,2013-09-29 07:06:00,
2013-09-29 03:11:00,76.7,69.3,29.98,North,0,0.2,1.1,78,0.00,,,0.00,WUHU216HW,2013-09-29 07:11:00,
2013-09-29 03:16:00,76.7,69.3,29.98,NNW,338,0.2,1.6,78,0.00,,,0.00,WUHU216HW,2013-09-29 07:16:00,
2013-09-29 03:21:00,76.5,69.1,29.99,North,0,0.0,2.0,78,0.00,,,0.00,WUHU216HW,2013-09-29 07:21:00,
2013-09-29 03:26:00,76.5,69.5,29.98,East,90,0.4,2.0,79,0.00,,,0.00,WUHU216HW,2013-09-29 07:26:00,
2013-09-29 03:31:00,76.5,69.5,29.99,North,0,0.4,1.6,79,0.00,,,0.00,WUHU216HW,2013-09-29 07:31:00,
2013-09-29 03:36:00,76.5,69.5,29.98,NNE,23,0.7,1.6,79,0.00,,,0.00,WUHU216HW,2013-09-29 07:36:00,
2013-09-29 03:41:00,76.3,69.4,29.99,ENE,68,0.7,1.6,79,0.00,,,0.00,WUHU216HW,2013-09-29 07:41:00,
2013-09-29 03:46:00,76.3,69.4,29.98,NE,45,0.0,1.6,79,0.00,,,0.00,WUHU216HW,2013-09-29 07:46:00,
2013-09-29 03:51:00,76.3,69.4,29.98,NE,45,0.0,1.6,79,0.00,,,0.00,WUHU216HW,2013-09-29 07:51:00,
2013-09-29 03:56:00,76.3,69.4,29.98,NNE,23,0.9,1.6,79,0.00,,,0.00,WUHU216HW,2013-09-29 07:56:00,
2013-09-29 04:01:00,76.3,69.4,29.98,NNW,338,0.0,0.9,79,0.00,,,0.00,WUHU216HW,2013-09-29 08:01:00,
2013-09-29 04:06:00,76.3,69.4,29.98,North,0,0.4,0.9,79,0.00,,,0.00,WUHU216HW,2013-09-29 08:06:00,
2013-09-29 04:11:00,76.1,69.2,29.98,NE,45,0.2,0.9,79,0.00,,,0.00,WUHU216HW,2013-09-29 08:11:00,
2013-09-29 04:16:00,76.0,69.0,29.98,North,0,0.0,1.1,79,0.00,,,0.00,WUHU216HW,2013-09-29 08:16:00,
2013-09-29 04:21:00,76.0,69.0,29.97,North,0,0.0,1.1,79,0.00,,,0.00,WUHU216HW,2013-09-29 08:21:00,
2013-09-29 04:26:00,76.0,69.0,29.98,NE,45,0.0,0.9,79,0.00,,,0.00,WUHU216HW,2013-09-29 08:26:00,
2013-09-29 04:31:00,76.0,69.0,29.97,North,0,0.0,0.7,79,0.00,,,0.00,WUHU216HW,2013-09-29 08:31:00,
2013-09-29 04:36:00,76.0,69.0,29.97,North,0,0.0,1.8,79,0.00,,,0.00,WUHU216HW,2013-09-29 08:36:00,
2013-09-29 04:41:00,76.0,69.0,29.97,ESE,113,0.2,1.8,79,0.00,,,0.00,WUHU216HW,2013-09-29 08:41:00,
2013-09-29 04:46:00,76.0,69.0,29.98,NNE,23,0.0,1.1,79,0.00,,,0.00,WUHU216HW,2013-09-29 08:46:00,
2013-09-29 04:51:00,75.8,68.9,29.98,North,0,0.0,0.9,79,0.00,,,0.00,WUHU216HW,2013-09-29 08:51:00,
2013-09-29 04:56:00,75.8,68.9,29.97,NNE,23,0.2,1.3,79,0.00,,,0.00,WUHU216HW,2013-09-29 08:56:00,
2013-09-29 05:01:00,75.6,68.7,29.98,North,0,0.0,1.3,79,0.00,,,0.00,WUHU216HW,2013-09-29 09:01:00,
2013-09-29 05:06:00,75.6,68.7,29.98,NNW,338,0.2,1.1,79,0.00,,,0.00,WUHU216HW,2013-09-29 09:06:00,
2013-09-29 05:11:00,75.4,68.5,29.97,ENE,68,0.0,1.1,79,0.00,,,0.00,WUHU216HW,2013-09-29 09:11:00,
2013-09-29 05:16:00,75.4,68.5,29.98,NNE,23,0.0,1.1,79,0.00,,,0.00,WUHU216HW,2013-09-29 09:16:00,
2013-09-29 05:21:00,75.4,69.0,29.98,North,0,0.2,0.9,80,0.00,,,0.00,WUHU216HW,2013-09-29 09:21:00,
2013-09-29 05:26:00,75.2,68.8,29.98,NE,45,0.2,1.1,80,0.00,,,0.00,WUHU216HW,2013-09-29 09:26:00,
2013-09-29 05:31:00,75.2,68.8,29.99,East,90,0.0,1.1,80,0.00,,,0.00,WUHU216HW,2013-09-29 09:31:00,
2013-09-29 05:36:00,75.1,68.6,29.99,East,90,0.0,1.1,80,0.00,,,0.00,WUHU216HW,2013-09-29 09:36:00,
2013-09-29 05:41:00,75.1,68.6,29.99,NNW,338,0.0,1.1,80,0.00,,,0.00,WUHU216HW,2013-09-29 09:41:00,
2013-09-29 05:46:00,74.9,68.4,29.99,North,0,0.0,1.3,80,0.00,,,0.00,WUHU216HW,2013-09-29 09:46:00,
2013-09-29 05:51:00,74.9,68.4,29.99,NNW,338,0.0,1.6,80,0.00,,,0.00,WUHU216HW,2013-09-29 09:51:00,
2013-09-29 05:56:00,74.9,68.4,29.99,NNE,23,0.0,1.6,80,0.00,,,0.00,WUHU216HW,2013-09-29 09:56:00,
2013-09-29 06:01:00,74.7,68.6,29.99,NE,45,0.0,0.7,81,0.00,,,0.00,WUHU216HW,2013-09-29 10:01:00,
2013-09-29 06:06:00,74.7,68.6,29.99,East,90,1.1,1.1,81,0.00,,,0.00,WUHU216HW,2013-09-29 10:06:00,
2013-09-29 06:11:00,74.5,68.4,29.99,SE,135,0.0,1.1,81,0.00,,,0.00,WUHU216HW,2013-09-29 10:11:00,
2013-09-29 06:16:00,74.5,68.4,29.99,NE,45,0.0,1.1,81,0.00,,,0.00,WUHU216HW,2013-09-29 10:16:00,
2013-09-29 06:21:00,74.5,68.4,29.99,NNE,23,0.0,1.8,81,0.00,,,0.00,WUHU216HW,2013-09-29 10:21:00,
2013-09-29 06:26:00,74.5,68.4,29.99,East,90,1.1,1.8,81,0.00,,,0.00,WUHU216HW,2013-09-29 10:26:00,
2013-09-29 06:31:00,74.3,68.2,29.99,North,0,0.0,1.1,81,0.00,,,0.00,WUHU216HW,2013-09-29 10:31:00,
2013-09-29 06:37:00,74.3,68.6,30.00,ENE,68,0.7,1.1,82,0.00,,,0.00,WUHU216HW,2013-09-29 10:37:00,
2013-09-29 06:42:00,74.2,68.4,30.00,NE,45,0.0,0.9,82,0.00,,,0.00,WUHU216HW,2013-09-29 10:42:00,
2013-09-29 06:47:00,74.2,68.4,30.00,NNE,23,0.0,0.7,82,0.00,,,0.00,WUHU216HW,2013-09-29 10:47:00,
2013-09-29 06:52:00,74.2,68.4,30.00,NNE,23,0.0,0.7,82,0.00,,,0.00,WUHU216HW,2013-09-29 10:52:00,
2013-09-29 06:57:00,74.0,68.2,30.00,North,0,0.0,1.1,82,0.00,,,0.00,WUHU216HW,2013-09-29 10:57:00,
2013-09-29 07:02:00,74.0,68.2,30.00,NNE,23,0.0,1.1,82,0.00,,,0.00,WUHU216HW,2013-09-29 11:02:00,
2013-09-29 07:07:00,74.0,68.2,30.00,ENE,68,0.0,0.7,82,0.00,,,0.00,WUHU216HW,2013-09-29 11:07:00,
2013-09-29 07:12:00,74.0,68.2,30.00,North,0,0.7,0.7,82,0.00,,,0.00,WUHU216HW,2013-09-29 11:12:00,
2013-09-29 07:17:00,74.0,68.2,30.00,NNE,23,0.0,0.7,82,0.00,,,0.00,WUHU216HW,2013-09-29 11:17:00,
2013-09-29 07:22:00,74.0,68.2,30.00,NNE,23,0.0,0.4,82,0.00,,,0.00,WUHU216HW,2013-09-29 11:22:00,
2013-09-29 07:27:00,74.0,68.2,30.00,North,0,0.0,0.7,82,0.00,,,0.00,WUHU216HW,2013-09-29 11:27:00,
2013-09-29 07:32:00,73.8,68.1,30.00,North,0,0.0,0.7,82,0.00,,,0.00,WUHU216HW,2013-09-29 11:32:00,
2013-09-29 07:37:00,73.8,68.3,30.00,ENE,68,0.0,0.4,83,0.00,,,0.00,WUHU216HW,2013-09-29 11:37:00,
2013-09-29 07:42:00,73.8,68.3,30.00,NNW,338,0.0,0.4,83,0.00,,,0.00,WUHU216HW,2013-09-29 11:42:00,
2013-09-29 07:47:00,74.0,68.5,30.00,NE,45,0.0,0.2,83,0.00,,,0.00,WUHU216HW,2013-09-29 11:47:00,
2013-09-29 07:52:00,74.0,68.5,30.00,NNE,23,0.0,0.4,83,0.00,,,0.00,WUHU216HW,2013-09-29 11:52:00,
2013-09-29 07:57:00,74.0,68.5,30.01,NNE,23,0.0,0.9,83,0.00,,,0.00,WUHU216HW,2013-09-29 11:57:00,
2013-09-29 08:02:00,74.2,68.7,30.01,NNE,23,0.2,0.9,83,0.00,,,0.00,WUHU216HW,2013-09-29 12:02:00,
2013-09-29 08:07:00,74.3,68.9,30.01,NNE,23,0.0,1.3,83,0.00,,,0.00,WUHU216HW,2013-09-29 12:07:00,
2013-09-29 08:12:00,74.2,68.7,30.01,NNW,338,0.0,1.3,83,0.00,,,0.00,WUHU216HW,2013-09-29 12:12:00,
2013-09-29 08:17:00,74.3,68.9,30.00,NNW,338,0.2,1.1,83,0.00,,,0.00,WUHU216HW,2013-09-29 12:17:00,
2013-09-29 08:22:00,74.5,69.0,30.01,NNW,338,0.0,0.4,83,0.00,,,0.00,WUHU216HW,2013-09-29 12:22:00,
2013-09-29 08:27:00,74.3,68.9,30.01,East,90,0.0,0.7,83,0.00,,,0.00,WUHU216HW,2013-09-29 12:27:00,
2013-09-29 08:32:00,74.5,69.0,30.01,ENE,68,0.4,0.7,83,0.00,,,0.00,WUHU216HW,2013-09-29 12:32:00,
2013-09-29 08:37:00,74.7,69.2,30.01,North,0,0.0,0.4,83,0.00,,,0.00,WUHU216HW,2013-09-29 12:37:00,
2013-09-29 08:42:00,74.9,69.4,30.01,East,90,0.0,2.5,83,0.00,,,0.00,WUHU216HW,2013-09-29 12:42:00,
2013-09-29 08:47:00,74.9,69.4,30.01,ENE,68,0.7,2.5,83,0.00,,,0.00,WUHU216HW,2013-09-29 12:47:00,
2013-09-29 08:52:00,75.1,69.6,30.02,North,0,0.4,1.8,83,0.00,,,0.00,WUHU216HW,2013-09-29 12:52:00,
2013-09-29 08:57:00,75.2,69.8,30.02,NE,45,0.9,2.7,83,0.00,,,0.00,WUHU216HW,2013-09-29 12:57:00,
2013-09-29 09:02:00,75.6,70.1,30.01,North,0,0.2,2.7,83,0.00,,,0.00,WUHU216HW,2013-09-29 13:02:00,
2013-09-29 09:07:00,75.8,69.9,30.02,NNW,338,0.0,0.9,82,0.00,,,0.00,WUHU216HW,2013-09-29 13:07:00,
2013-09-29 09:12:00,76.0,70.1,30.02,NNE,23,0.4,1.3,82,0.00,,,0.00,WUHU216HW,2013-09-29 13:12:00,
2013-09-29 09:17:00,76.3,70.1,30.02,WNW,293,0.7,1.3,81,0.00,,,0.00,WUHU216HW,2013-09-29 13:17:00,
2013-09-29 09:22:00,76.7,70.4,30.02,North,0,0.0,1.1,81,0.00,,,0.00,WUHU216HW,2013-09-29 13:22:00,
2013-09-29 09:27:00,76.9,70.6,30.02,NNE,23,0.0,2.0,81,0.00,,,0.00,WUHU216HW,2013-09-29 13:27:00,
2013-09-29 09:32:00,77.2,70.6,30.02,East,90,1.3,2.0,80,0.00,,,0.00,WUHU216HW,2013-09-29 13:32:00,
2013-09-29 09:37:00,77.6,70.9,30.01,ENE,68,0.7,1.8,80,0.00,,,0.00,WUHU216HW,2013-09-29 13:37:00,
2013-09-29 09:42:00,77.9,70.9,30.02,NE,45,1.1,1.8,79,0.00,,,0.00,WUHU216HW,2013-09-29 13:42:00,
2013-09-29 09:47:00,78.3,70.8,30.01,ENE,68,0.0,1.8,78,0.00,,,0.00,WUHU216HW,2013-09-29 13:47:00,
2013-09-29 09:52:00,78.8,71.4,30.01,ENE,68,0.0,1.8,78,0.00,,,0.00,WUHU216HW,2013-09-29 13:52:00,
2013-09-29 09:57:00,79.4,71.6,30.02,East,90,0.4,1.6,77,0.00,,,0.00,WUHU216HW,2013-09-29 13:57:00,
2013-09-29 10:03:00,79.6,71.3,30.02,ENE,68,1.1,2.9,76,0.00,,,0.00,WUHU216HW,2013-09-29 14:03:00,
2013-09-29 10:08:00,79.9,71.6,30.01,East,90,0.4,2.9,76,0.00,,,0.00,WUHU216HW,2013-09-29 14:08:00,
2013-09-29 10:13:00,80.3,71.6,30.01,ESE,113,0.4,1.3,75,0.00,,,0.00,WUHU216HW,2013-09-29 14:13:00,
2013-09-29 10:18:00,80.8,72.2,30.01,NNE,23,0.0,1.3,75,0.00,,,0.00,WUHU216HW,2013-09-29 14:18:00,
2013-09-29 10:23:00,81.0,71.9,30.01,ENE,68,1.1,1.6,74,0.00,,,0.00,WUHU216HW,2013-09-29 14:23:00,
2013-09-29 10:28:00,81.4,71.5,30.01,ESE,113,1.3,1.8,72,0.00,,,0.00,WUHU216HW,2013-09-29 14:28:00,
2013-09-29 10:33:00,81.7,72.2,30.01,NE,45,0.0,1.8,73,0.00,,,0.00,WUHU216HW,2013-09-29 14:33:00,
2013-09-29 10:38:00,82.1,72.5,30.01,North,0,0.2,1.8,73,0.00,,,0.00,WUHU216HW,2013-09-29 14:38:00,
2013-09-29 10:43:00,82.6,72.6,30.01,NE,45,0.4,1.6,72,0.00,,,0.00,WUHU216HW,2013-09-29 14:43:00,
2013-09-29 10:48:00,83.0,73.0,30.01,ENE,68,0.4,1.8,72,0.00,,,0.00,WUHU216HW,2013-09-29 14:48:00,
2013-09-29 10:53:00,83.3,73.4,30.01,SSE,158,0.4,1.8,72,0.00,,,0.00,WUHU216HW,2013-09-29 14:53:00,
2013-09-29 10:58:00,83.5,73.1,30.01,ENE,68,0.0,1.6,71,0.00,,,0.00,WUHU216HW,2013-09-29 14:58:00,
2013-09-29 11:03:00,84.2,73.4,30.01,ENE,68,0.0,1.3,70,0.00,,,0.00,WUHU216HW,2013-09-29 15:03:00,
2013-09-29 11:08:00,84.8,73.5,30.01,ESE,113,1.1,3.8,69,0.00,,,0.00,WUHU216HW,2013-09-29 15:08:00,
2013-09-29 11:13:00,85.3,73.2,30.01,NNE,23,0.0,3.8,67,0.00,,,0.00,WUHU216HW,2013-09-29 15:13:00,
2013-09-29 11:18:00,85.7,73.0,30.00,North,0,0.2,1.6,66,0.00,,,0.00,WUHU216HW,2013-09-29 15:18:00,
2013-09-29 11:23:00,85.9,72.7,30.00,NE,45,0.4,1.8,65,0.00,,,0.00,WUHU216HW,2013-09-29 15:23:00,
2013-09-29 11:28:00,85.7,72.5,30.01,NE,45,0.4,2.2,65,0.00,,,0.00,WUHU216HW,2013-09-29 15:28:00,
2013-09-29 11:33:00,85.9,72.7,30.01,NNE,23,0.0,2.2,65,0.00,,,0.00,WUHU216HW,2013-09-29 15:33:00,
2013-09-29 11:38:00,86.4,73.7,30.01,NNE,23,0.4,2.2,66,0.00,,,0.00,WUHU216HW,2013-09-29 15:38:00,
2013-09-29 11:43:00,86.8,73.6,30.01,NNW,338,0.2,2.2,65,0.00,,,0.00,WUHU216HW,2013-09-29 15:43:00,
2013-09-29 11:48:00,86.9,73.3,30.01,NNW,338,0.2,1.8,64,0.00,,,0.00,WUHU216HW,2013-09-29 15:48:00,
2013-09-29 11:53:00,86.9,72.4,30.01,NNW,338,0.4,3.4,62,0.00,,,0.00,WUHU216HW,2013-09-29 15:53:00,
2013-09-29 11:58:00,87.3,73.2,30.01,ENE,68,0.4,3.4,63,0.00,,,0.00,WUHU216HW,2013-09-29 15:58:00,
2013-09-29 12:03:00,87.8,73.7,30.00,SSE,158,0.0,1.1,63,0.00,,,0.00,WUHU216HW,2013-09-29 16:03:00,
2013-09-29 12:08:00,88.4,73.3,30.00,NNW,338,0.2,0.9,61,0.00,,,0.00,WUHU216HW,2013-09-29 16:08:00,
2013-09-29 12:13:00,88.6,73.0,30.00,North,0,0.2,1.6,60,0.00,,,0.00,WUHU216HW,2013-09-29 16:13:00,
2013-09-29 12:18:00,88.7,71.6,30.00,North,0,0.4,1.6,57,0.00,,,0.00,WUHU216HW,2013-09-29 16:18:00,
2013-09-29 12:23:00,88.9,72.3,30.00,NNE,23,0.2,1.1,58,0.00,,,0.00,WUHU216HW,2013-09-29 16:23:00,
2013-09-29 12:28:00,89.3,72.0,30.00,WSW,248,0.4,1.6,57,0.00,,,0.00,WUHU216HW,2013-09-29 16:28:00,
2013-09-29 12:33:00,89.6,71.3,30.00,SSE,158,0.4,1.6,55,0.00,,,0.00,WUHU216HW,2013-09-29 16:33:00,
2013-09-29 12:38:00,90.0,71.7,30.00,NE,45,0.0,1.6,55,0.00,,,0.00,WUHU216HW,2013-09-29 16:38:00,
2013-09-29 12:43:00,90.4,71.4,30.00,ESE,113,1.1,1.8,54,0.00,,,0.00,WUHU216HW,2013-09-29 16:43:00,
2013-09-29 12:48:00,90.5,71.0,29.99,NW,315,0.2,2.2,53,0.00,,,0.00,WUHU216HW,2013-09-29 16:48:00,
2013-09-29 12:53:00,90.9,71.4,29.99,East,90,0.7,2.2,53,0.00,,,0.00,WUHU216HW,2013-09-29 16:53:00,
2013-09-29 12:58:00,91.1,70.9,29.99,South,180,1.1,1.8,52,0.00,,,0.00,WUHU216HW,2013-09-29 16:58:00,
2013-09-29 13:03:00,91.3,70.6,29.99,SE,135,1.8,2.2,51,0.00,,,0.00,WUHU216HW,2013-09-29 17:03:00,
2013-09-29 13:08:00,91.6,71.5,29.99,North,0,0.0,2.2,52,0.00,,,0.00,WUHU216HW,2013-09-29 17:08:00,
2013-09-29 13:13:00,91.8,71.7,29.98,East,90,0.7,2.5,52,0.00,,,0.00,WUHU216HW,2013-09-29 17:13:00,
2013-09-29 13:18:00,92.2,71.4,29.98,ENE,68,0.4,2.5,51,0.00,,,0.00,WUHU216HW,2013-09-29 17:18:00,
2013-09-29 13:23:00,92.2,71.9,29.98,ESE,113,1.1,2.5,52,0.00,,,0.00,WUHU216HW,2013-09-29 17:23:00,
2013-09-29 13:28:00,92.5,71.7,29.97,East,90,0.0,2.5,51,0.00,,,0.00,WUHU216HW,2013-09-29 17:28:00,
2013-09-29 13:33:00,92.7,72.5,29.97,North,0,0.4,1.8,52,0.00,,,0.00,WUHU216HW,2013-09-29 17:33:00,
2013-09-29 13:38:00,92.9,72.1,29.97,SE,135,1.1,2.5,51,0.00,,,0.00,WUHU216HW,2013-09-29 17:38:00,
2013-09-29 13:43:00,93.1,72.8,29.97,SE,135,0.0,2.5,52,0.00,,,0.00,WUHU216HW,2013-09-29 17:43:00,
2013-09-29 13:48:00,93.2,72.4,29.97,NNE,23,1.3,2.0,51,0.00,,,0.00,WUHU216HW,2013-09-29 17:48:00,
2013-09-29 13:53:00,93.6,72.7,29.97,NE,45,0.7,1.8,51,0.00,,,0.00,WUHU216HW,2013-09-29 17:53:00,
2013-09-29 13:58:00,94.0,72.5,29.97,SE,135,1.8,2.5,50,0.00,,,0.00,WUHU216HW,2013-09-29 17:58:00,
2013-09-29 14:03:00,95.0,73.6,29.97,NNW,338,0.0,2.5,50,0.00,,,0.00,WUHU216HW,2013-09-29 18:03:00,
2013-09-29 14:08:00,95.6,72.8,29.96,ENE,68,0.4,1.8,48,0.00,,,0.00,WUHU216HW,2013-09-29 18:08:00,
2013-09-29 14:13:00,96.1,73.3,29.96,NNW,338,0.4,2.5,48,0.00,,,0.00,WUHU216HW,2013-09-29 18:13:00,
2013-09-29 14:18:00,96.3,72.7,29.96,East,90,1.1,2.5,47,0.00,,,0.00,WUHU216HW,2013-09-29 18:18:00,
2013-09-29 14:23:00,96.1,72.6,29.96,North,0,0.0,2.5,47,0.00,,,0.00,WUHU216HW,2013-09-29 18:23:00,
2013-09-29 14:28:00,96.3,72.7,29.96,North,0,0.0,2.5,47,0.00,,,0.00,WUHU216HW,2013-09-29 18:28:00,
2013-09-29 14:33:00,96.3,72.1,29.95,East,90,0.7,2.5,46,0.00,,,0.00,WUHU216HW,2013-09-29 18:33:00,
2013-09-29 14:38:00,95.9,71.7,29.95,SE,135,0.4,1.8,46,0.00,,,0.00,WUHU216HW,2013-09-29 18:38:00,
2013-09-29 14:43:00,95.6,71.5,29.95,ESE,113,1.1,1.8,46,0.00,,,0.00,WUHU216HW,2013-09-29 18:43:00,
2013-09-29 14:48:00,95.8,72.3,29.95,North,0,0.0,1.1,47,0.00,,,0.00,WUHU216HW,2013-09-29 18:48:00,
2013-09-29 14:53:00,95.8,72.3,29.95,NNE,23,1.1,1.1,47,0.00,,,0.00,WUHU216HW,2013-09-29 18:53:00,
2013-09-29 14:58:00,95.6,72.1,29.95,North,0,0.7,2.0,47,0.00,,,0.00,WUHU216HW,2013-09-29 18:58:00,
2013-09-29 15:03:00,95.4,71.3,29.94,NE,45,0.9,2.7,46,0.00,,,0.00,WUHU216HW,2013-09-29 19:03:00,
2013-09-29 15:08:00,95.4,71.9,29.94,North,0,0.0,2.7,47,0.00,,,0.00,WUHU216HW,2013-09-29 19:08:00,
2013-09-29 15:13:00,95.4,71.9,29.94,North,0,0.0,1.3,47,0.00,,,0.00,WUHU216HW,2013-09-29 19:13:00,
2013-09-29 15:18:00,94.5,71.1,29.94,NNW,338,0.2,0.7,47,0.00,,,0.00,WUHU216HW,2013-09-29 19:18:00,
2013-09-29 15:23:00,93.4,69.4,29.93,ENE,68,0.9,1.8,46,0.00,,,0.00,WUHU216HW,2013-09-29 19:23:00,
2013-09-29 15:28:00,93.1,69.8,29.93,ENE,68,2.5,2.5,47,0.00,,,0.00,WUHU216HW,2013-09-29 19:28:00,
2013-09-29 15:33:00,93.2,69.2,29.93,NNW,338,0.4,2.5,46,0.00,,,0.00,WUHU216HW,2013-09-29 19:33:00,
2013-09-29 15:38:00,92.9,69.6,29.93,NE,45,0.4,2.5,47,0.00,,,0.00,WUHU216HW,2013-09-29 19:38:00,
2013-09-29 15:43:00,92.7,70.0,29.93,SSE,158,0.2,2.0,48,0.00,,,0.00,WUHU216HW,2013-09-29 19:43:00,
2013-09-29 15:48:00,92.5,69.2,29.92,South,180,1.3,2.0,47,0.00,,,0.00,WUHU216HW,2013-09-29 19:48:00,
2013-09-29 15:53:00,92.7,70.0,29.92,North,0,0.4,2.0,48,0.00,,,0.00,WUHU216HW,2013-09-29 19:53:00,
2013-09-29 15:58:00,92.7,71.4,29.92,NNE,23,0.9,2.2,50,0.00,,,0.00,WUHU216HW,2013-09-29 19:58:00,
2013-09-29 16:03:00,92.3,70.4,29.92,NW,315,0.4,2.2,49,0.00,,,0.00,WUHU216HW,2013-09-29 20:03:00,
2013-09-29 16:08:00,91.3,70.0,29.92,West,270,0.7,1.3,50,0.00,,,0.00,WUHU216HW,2013-09-29 20:08:00,
2013-09-29 16:13:00,90.7,70.7,29.92,NW,315,0.0,1.3,52,0.00,,,0.00,WUHU216HW,2013-09-29 20:13:00,
2013-09-29 16:18:00,90.2,70.1,29.92,North,0,1.1,2.7,52,0.00,,,0.00,WUHU216HW,2013-09-29 20:18:00,
2013-09-29 16:23:00,90.0,70.0,29.92,NNW,338,0.0,2.7,52,0.00,,,0.00,WUHU216HW,2013-09-29 20:23:00,
2013-09-29 16:28:00,90.0,70.0,29.92,WSW,248,0.9,2.2,52,0.00,,,0.00,WUHU216HW,2013-09-29 20:28:00,
2013-09-29 16:33:00,89.8,70.4,29.92,NW,315,0.0,2.2,53,0.00,,,0.00,WUHU216HW,2013-09-29 20:33:00,
2013-09-29 16:38:00,90.0,70.6,29.92,NW,315,0.0,1.6,53,0.00,,,0.00,WUHU216HW,2013-09-29 20:38:00,
2013-09-29 16:43:00,90.0,70.0,29.92,NE,45,0.0,1.6,52,0.00,,,0.00,WUHU216HW,2013-09-29 20:43:00,
2013-09-29 16:48:00,90.0,70.6,29.92,North,0,0.2,1.3,53,0.00,,,0.00,WUHU216HW,2013-09-29 20:48:00,
2013-09-29 16:53:00,89.6,70.2,29.92,NW,315,0.4,0.9,53,0.00,,,0.00,WUHU216HW,2013-09-29 20:53:00,
2013-09-29 16:58:00,89.3,70.4,29.92,WNW,293,0.0,1.1,54,0.00,,,0.00,WUHU216HW,2013-09-29 20:58:00,
2013-09-29 17:03:00,89.3,70.4,29.92,NNE,23,0.2,1.1,54,0.00,,,0.00,WUHU216HW,2013-09-29 21:03:00,
2013-09-29 17:08:00,89.3,70.4,29.92,North,0,0.4,1.8,54,0.00,,,0.00,WUHU216HW,2013-09-29 21:08:00,
2013-09-29 17:13:00,89.3,70.4,29.92,WNW,293,0.7,1.8,54,0.00,,,0.00,WUHU216HW,2013-09-29 21:13:00,
2013-09-29 17:18:00,89.1,70.3,29.92,East,90,0.2,1.6,54,0.00,,,0.00,WUHU216HW,2013-09-29 21:18:00,
2013-09-29 17:23:00,88.9,70.7,29.92,NE,45,0.0,1.6,55,0.00,,,0.00,WUHU216HW,2013-09-29 21:23:00,
2013-09-29 17:28:00,88.9,70.7,29.92,SE,135,0.7,1.3,55,0.00,,,0.00,WUHU216HW,2013-09-29 21:28:00,
2013-09-29 17:33:00,88.9,70.7,29.92,North,0,0.0,0.9,55,0.00,,,0.00,WUHU216HW,2013-09-29 21:33:00,
2013-09-29 17:38:00,88.7,71.0,29.92,North,0,0.0,1.1,56,0.00,,,0.00,WUHU216HW,2013-09-29 21:38:00,
2013-09-29 17:43:00,88.6,70.8,29.92,NNW,338,0.0,1.1,56,0.00,,,0.00,WUHU216HW,2013-09-29 21:43:00,
2013-09-29 17:48:00,88.6,70.8,29.92,West,270,0.2,1.6,56,0.00,,,0.00,WUHU216HW,2013-09-29 21:48:00,
2013-09-29 17:53:00,88.6,71.4,29.92,NNE,23,1.1,1.6,57,0.00,,,0.00,WUHU216HW,2013-09-29 21:53:00,
2013-09-29 17:58:00,88.6,71.4,29.92,NNW,338,0.2,1.1,57,0.00,,,0.00,WUHU216HW,2013-09-29 21:58:00,
2013-09-29 18:03:00,88.9,71.2,29.92,NW,315,0.0,1.1,56,0.00,,,0.00,WUHU216HW,2013-09-29 22:03:00,
2013-09-29 18:08:00,88.9,71.2,29.92,NNW,338,0.0,0.9,56,0.00,,,0.00,WUHU216HW,2013-09-29 22:08:00,
2013-09-29 18:13:00,88.9,71.2,29.92,North,0,0.0,0.7,56,0.00,,,0.00,WUHU216HW,2013-09-29 22:13:00,
2013-09-29 18:18:00,88.9,71.2,29.92,North,0,0.0,0.7,56,0.00,,,0.00,WUHU216HW,2013-09-29 22:18:00,
2013-09-29 18:23:00,88.6,70.8,29.92,NNW,338,0.0,0.4,56,0.00,,,0.00,WUHU216HW,2013-09-29 22:23:00,
2013-09-29 18:28:00,88.2,70.6,29.92,West,270,0.2,1.6,56,0.00,,,0.00,WUHU216HW,2013-09-29 22:28:00,
2013-09-29 18:33:00,87.5,70.4,29.92,North,0,0.0,1.6,57,0.00,,,0.00,WUHU216HW,2013-09-29 22:33:00,
2013-09-29 18:38:00,86.9,70.4,29.92,West,270,0.0,0.4,58,0.00,,,0.00,WUHU216HW,2013-09-29 22:38:00,
2013-09-29 18:43:00,86.6,70.6,29.92,NNE,23,0.0,0.4,59,0.00,,,0.00,WUHU216HW,2013-09-29 22:43:00,
2013-09-29 18:48:00,86.0,70.0,29.92,NW,315,0.0,0.2,59,0.00,,,0.00,WUHU216HW,2013-09-29 22:48:00,
2013-09-29 18:53:00,85.7,70.2,29.92,NW,315,0.0,0.7,60,0.00,,,0.00,WUHU216HW,2013-09-29 22:53:00,
2013-09-29 18:58:00,85.3,69.9,29.92,North,0,0.0,0.7,60,0.00,,,0.00,WUHU216HW,2013-09-29 22:58:00,
2013-09-29 19:03:00,85.1,70.2,29.93,NNW,338,0.0,0.2,61,0.00,,,0.00,WUHU216HW,2013-09-29 23:03:00,
2013-09-29 19:08:00,84.8,70.4,29.93,NNE,23,0.0,0.2,62,0.00,,,0.00,WUHU216HW,2013-09-29 23:08:00,
2013-09-29 19:13:00,84.6,70.2,29.93,NNW,338,0.0,0.2,62,0.00,,,0.00,WUHU216HW,2013-09-29 23:13:00,
2013-09-29 19:18:00,84.2,70.3,29.93,NNW,338,0.0,0.2,63,0.00,,,0.00,WUHU216HW,2013-09-29 23:18:00,
2013-09-29 19:23:00,84.2,70.7,29.93,ENE,68,0.0,0.4,64,0.00,,,0.00,WUHU216HW,2013-09-29 23:23:00,
2013-09-29 19:28:00,83.9,70.4,29.93,NW,315,0.0,0.4,64,0.00,,,0.00,WUHU216HW,2013-09-29 23:28:00,
2013-09-29 19:33:00,83.7,70.7,29.94,WNW,293,0.0,0.0,65,0.00,,,0.00,WUHU216HW,2013-09-29 23:33:00,
2013-09-29 19:38:00,83.3,70.7,29.94,NW,315,0.0,0.0,66,0.00,,,0.00,WUHU216HW,2013-09-29 23:38:00,
2013-09-29 19:43:00,83.2,70.6,29.94,North,0,0.0,0.4,66,0.00,,,0.00,WUHU216HW,2013-09-29 23:43:00,
2013-09-29 19:48:00,83.0,70.8,29.94,NNW,338,0.0,0.4,67,0.00,,,0.00,WUHU216HW,2013-09-29 23:48:00,
2013-09-29 19:53:00,83.0,70.8,29.94,NNW,338,0.0,0.0,67,0.00,,,0.00,WUHU216HW,2013-09-29 23:53:00,
2013-09-29 19:58:00,82.8,70.7,29.94,NNE,23,0.0,0.2,67,0.00,,,0.00,WUHU216HW,2013-09-29 23:58:00,
2013-09-29 20:03:00,82.6,70.5,29.94,NNE,23,0.0,0.2,67,0.00,,,0.00,WUHU216HW,2013-09-30 00:03:00,
2013-09-29 20:08:00,82.4,70.7,29.94,NE,45,0.0,0.0,68,0.00,,,0.00,WUHU216HW,2013-09-30 00:08:00,
2013-09-29 20:13:00,82.4,70.7,29.94,North,0,0.0,0.2,68,0.00,,,0.00,WUHU216HW,2013-09-30 00:13:00,
2013-09-29 20:18:00,82.3,70.6,29.95,NNW,338,0.0,0.2,68,0.00,,,0.00,WUHU216HW,2013-09-30 00:18:00,
2013-09-29 20:23:00,82.1,70.4,29.95,NNW,338,0.0,0.0,68,0.00,,,0.00,WUHU216HW,2013-09-30 00:23:00,
2013-09-29 20:28:00,82.1,70.4,29.95,NNW,338,0.0,0.0,68,0.00,,,0.00,WUHU216HW,2013-09-30 00:28:00,
2013-09-29 20:33:00,81.9,70.3,29.95,NNW,338,0.0,0.0,68,0.00,,,0.00,WUHU216HW,2013-09-30 00:33:00,
2013-09-29 20:38:00,81.7,70.6,29.95,NNW,338,0.0,0.0,69,0.00,,,0.00,WUHU216HW,2013-09-30 00:38:00,
2013-09-29 20:43:00,81.7,70.6,29.95,North,0,0.0,0.0,69,0.00,,,0.00,WUHU216HW,2013-09-30 00:43:00,
2013-09-29 20:48:00,81.7,70.6,29.95,North,0,0.0,0.0,69,0.00,,,0.00,WUHU216HW,2013-09-30 00:48:00,
2013-09-29 20:53:00,81.5,70.4,29.96,NNW,338,0.0,0.0,69,0.00,,,0.00,WUHU216HW,2013-09-30 00:53:00,
2013-09-29 20:58:00,81.5,70.4,29.96,North,0,0.0,0.0,69,0.00,,,0.00,WUHU216HW,2013-09-30 00:58:00,
2013-09-29 21:03:00,81.4,70.7,29.96,NNE,23,0.0,0.4,70,0.00,,,0.00,WUHU216HW,2013-09-30 01:03:00,
2013-09-29 21:08:00,81.4,70.7,29.97,ENE,68,0.0,0.4,70,0.00,,,0.00,WUHU216HW,2013-09-30 01:08:00,
2013-09-29 21:13:00,81.2,70.5,29.97,North,0,0.0,0.4,70,0.00,,,0.00,WUHU216HW,2013-09-30 01:13:00,
2013-09-29 21:18:00,81.2,70.5,29.97,NNE,23,0.2,0.2,70,0.00,,,0.00,WUHU216HW,2013-09-30 01:18:00,
2013-09-29 21:23:00,81.2,70.9,29.97,NE,45,0.0,0.7,71,0.00,,,0.00,WUHU216HW,2013-09-30 01:23:00,
2013-09-29 21:28:00,81.0,70.7,29.97,NNE,23,0.0,0.9,71,0.00,,,0.00,WUHU216HW,2013-09-30 01:28:00,
2013-09-29 21:33:00,81.0,70.7,29.97,North,0,0.4,0.9,71,0.00,,,0.00,WUHU216HW,2013-09-30 01:33:00,
2013-09-29 21:38:00,80.8,70.2,29.97,NW,315,0.2,1.1,70,0.00,,,0.00,WUHU216HW,2013-09-30 01:38:00,
2013-09-29 21:43:00,80.8,69.8,29.98,North,0,0.4,1.1,69,0.00,,,0.00,WUHU216HW,2013-09-30 01:43:00,
2013-09-29 21:48:00,80.8,69.8,29.98,North,0,0.0,1.1,69,0.00,,,0.00,WUHU216HW,2013-09-30 01:48:00,
2013-09-29 21:53:00,80.8,69.3,29.97,North,0,0.0,2.5,68,0.00,,,0.00,WUHU216HW,2013-09-30 01:53:00,
2013-09-29 21:58:00,80.8,69.3,29.98,NNE,23,0.9,2.5,68,0.00,,,0.00,WUHU216HW,2013-09-30 01:58:00,
2013-09-29 22:03:00,80.8,69.3,29.98,North,0,0.2,1.3,68,0.00,,,0.00,WUHU216HW,2013-09-30 02:03:00,
2013-09-29 22:08:00,80.8,68.9,29.98,NNE,23,0.0,0.9,67,0.00,,,0.00,WUHU216HW,2013-09-30 02:08:00,
2013-09-29 22:13:00,80.8,68.9,29.98,WNW,293,0.2,0.4,67,0.00,,,0.00,WUHU216HW,2013-09-30 02:13:00,
2013-09-29 22:18:00,80.8,68.9,29.99,NNW,338,0.0,0.4,67,0.00,,,0.00,WUHU216HW,2013-09-30 02:18:00,
2013-09-29 22:23:00,80.8,68.9,29.99,NNE,23,0.0,0.2,67,0.00,,,0.00,WUHU216HW,2013-09-30 02:23:00,
2013-09-29 22:28:00,80.6,68.7,29.99,NNW,338,0.0,0.0,67,0.00,,,0.00,WUHU216HW,2013-09-30 02:28:00,
2013-09-29 22:33:00,80.6,68.7,29.99,East,90,0.0,0.9,67,0.00,,,0.00,WUHU216HW,2013-09-30 02:33:00,
2013-09-29 22:38:00,80.5,68.5,29.99,North,0,0.0,0.9,67,0.00,,,0.00,WUHU216HW,2013-09-30 02:38:00,
2013-09-29 22:43:00,80.5,68.5,29.99,East,90,0.0,0.9,67,0.00,,,0.00,WUHU216HW,2013-09-30 02:43:00,
2013-09-29 22:48:00,80.3,68.3,29.99,NW,315,0.4,0.9,67,0.00,,,0.00,WUHU216HW,2013-09-30 02:48:00,
2013-09-29 22:53:00,80.3,68.3,29.99,NNW,338,0.0,1.1,67,0.00,,,0.00,WUHU216HW,2013-09-30 02:53:00,
2013-09-29 22:58:00,80.3,68.3,29.99,SE,135,0.0,1.1,67,0.00,,,0.00,WUHU216HW,2013-09-30 02:58:00,
2013-09-29 23:03:00,80.3,68.3,29.99,SE,135,0.0,0.7,67,0.00,,,0.00,WUHU216HW,2013-09-30 03:03:00,
2013-09-29 23:08:00,80.1,68.1,29.99,SE,135,0.9,1.3,67,0.00,,,0.00,WUHU216HW,2013-09-30 03:08:00,
2013-09-29 23:13:00,80.1,68.1,29.99,ESE,113,0.0,1.6,67,0.00,,,0.00,WUHU216HW,2013-09-30 03:13:00,
2013-09-29 23:18:00,79.9,68.4,29.99,ENE,68,0.0,1.6,68,0.00,,,0.00,WUHU216HW,2013-09-30 03:18:00,
2013-09-29 23:23:00,79.9,68.4,29.99,SE,135,0.4,1.6,68,0.00,,,0.00,WUHU216HW,2013-09-30 03:23:00,
2013-09-29 23:28:00,79.9,68.4,29.99,ESE,113,0.9,1.6,68,0.00,,,0.00,WUHU216HW,2013-09-30 03:28:00,
2013-09-29 23:33:00,79.9,68.9,29.99,SE,135,1.1,1.1,69,0.00,,,0.00,WUHU216HW,2013-09-30 03:33:00,
2013-09-29 23:38:00,79.7,68.2,29.99,ESE,113,0.4,1.8,68,0.00,,,0.00,WUHU216HW,2013-09-30 03:38:00,
2013-09-29 23:43:00,79.6,68.5,29.99,SE,135,1.1,1.8,69,0.00,,,0.00,WUHU216HW,2013-09-30 03:43:00,
2013-09-29 23:48:00,79.6,68.5,29.98,SW,225,0.0,1.8,69,0.00,,,0.00,WUHU216HW,2013-09-30 03:48:00,
2013-09-29 23:53:00,79.4,68.8,29.98,ENE,68,0.0,2.0,70,0.00,,,0.00,WUHU216HW,2013-09-30 03:53:00,
2013-09-29 23:58:00,79.2,68.6,29.98,SSE,158,0.7,2.0,70,0.00,,,0.00,WUHU216HW,2013-09-30 03:58:00,